Wittenbergen — V2DA — position and weather

sailwx.info

Track history (hours):
 
Tides and Currents Weather Stations Pressure Air Temp Water Temp Dewpoint Dewpoint Depression Visibility Wind Speed Wind Dir Waves Ship Positions

Wittenbergen

Last reported at 2017-Nov-18 16:09 UTC. Time now 2017-Nov-19 09:00 UTC.
Position N 54°37' W 005°53'.

Length 88 m; draft 3.6 m.

Type: Cargo ship. MMSI: 304341000.

Date/timePositionNaut miles runAvg speedWind from/ knotsBaromVisibWave heightAir tempDewpointWater temp
2017-Nov-18 16:09N 54°37' W 005°53'0 0.0
2017-Nov-18 13:58N 54°37' W 005°53'1 2.4
2017-Nov-18 13:30N 54°38' W 005°53'5 9.3
2017-Nov-18 13:00N 54°41' W 005°47'5 9.4
2017-Nov-18 12:30N 54°43' W 005°40'5 9.9
2017-Nov-18 12:01N 54°45' W 005°32'510.9
2017-Nov-18 11:30N 54°41' W 005°25'5 9.7
2017-Nov-18 11:00N 54°37' W 005°21'5 9.9
2017-Nov-18 10:30N 54°33' W 005°18'5 9.4
2017-Nov-18 10:00N 54°28' W 005°15'5 9.0
2017-Nov-18 09:30N 54°24' W 005°12'4 8.8
2017-Nov-18 09:00N 54°20' W 005°09'60 8.1
2017-Nov-18 01:36N 53°39' W 003°55'3 9.1
2017-Nov-18 01:18N 53°37' W 003°51'3 9.1
2017-Nov-18 01:00N 53°36' W 003°47'5 9.3
2017-Nov-18 00:30N 53°33' W 003°40'5 9.3
2017-Nov-18 00:00N 53°33' W 003°32'5 9.3
2017-Nov-17 23:30N 53°33' W 003°24'4 8.8
2017-Nov-17 23:00N 53°32' W 003°17'4 8.2
2017-Nov-17 22:30N 53°32' W 003°10'4 8.6
2017-Nov-17 22:00N 53°29' W 003°05'4 8.0
2017-Nov-17 21:30N 53°26' W 003°01'2 3.0
2017-Nov-17 21:00N 53°24' W 003°01'0 0.0
2017-Nov-17 20:30N 53°24' W 003°01'0 0.0
2017-Nov-17 19:58N 53°24' W 003°01'0 0.8
2017-Nov-17 19:28N 53°24' W 003°02'0 0.8
2017-Nov-17 18:55N 53°24' W 003°03'0 0.0
2017-Nov-17 18:28N 53°24' W 003°03'0 0.0
2017-Nov-17 17:58N 53°24' W 003°03'0 0.0
2017-Nov-17 17:28N 53°24' W 003°03'0 0.0
2017-Nov-17 16:55N 53°24' W 003°03'0 0.0
2017-Nov-17 16:28N 53°24' W 003°03'0 0.0
2017-Nov-17 15:58N 53°24' W 003°03'0 0.0
2017-Nov-17 15:25N 53°24' W 003°03'0 0.0
2017-Nov-17 14:55N 53°24' W 003°03'0 0.0
2017-Nov-17 14:28N 53°24' W 003°03'0 0.0
2017-Nov-17 13:58N 53°24' W 003°03'0 0.0
2017-Nov-17 13:28N 53°24' W 003°03'0 0.0
2017-Nov-17 12:58N 53°24' W 003°03'0 0.0
2017-Nov-17 12:28N 53°24' W 003°03'0 0.0
2017-Nov-17 11:49N 53°24' W 003°03'0 0.0
2017-Nov-17 11:28N 53°24' W 003°03'0 0.0
2017-Nov-17 10:58N 53°24' W 003°03'0 0.0
2017-Nov-17 10:28N 53°24' W 003°03'0 0.0
2017-Nov-17 09:58N 53°24' W 003°03'0 0.0
2017-Nov-17 09:25N 53°24' W 003°03'0 0.0
2017-Nov-17 08:55N 53°24' W 003°03'0 0.0
2017-Nov-17 08:25N 53°24' W 003°03'0 0.0
2017-Nov-17 07:58N 53°24' W 003°03'0 0.0
2017-Nov-17 07:22N 53°24' W 003°03'0 0.0
2017-Nov-17 06:58N 53°24' W 003°03'0 0.0
2017-Nov-17 06:22N 53°24' W 003°03'0 0.0
2017-Nov-17 05:58N 53°24' W 003°03'0 0.0
2017-Nov-17 05:28N 53°24' W 003°03'0 0.0
2017-Nov-17 04:55N 53°24' W 003°03'0 0.0
2017-Nov-17 04:25N 53°24' W 003°03'0 0.0
2017-Nov-17 03:55N 53°24' W 003°03'0 0.0
2017-Nov-17 03:22N 53°24' W 003°03'0 0.0
2017-Nov-17 02:58N 53°24' W 003°03'0 0.0
2017-Nov-17 02:25N 53°24' W 003°03'0 0.0
2017-Nov-17 01:58N 53°24' W 003°03'0 0.0
2017-Nov-17 01:25N 53°24' W 003°03'0 0.0
2017-Nov-17 00:58N 53°24' W 003°03'0 0.0
2017-Nov-17 00:28N 53°24' W 003°03'0 0.0
2017-Nov-16 23:55N 53°24' W 003°03'0 0.0
2017-Nov-16 23:28N 53°24' W 003°03'0 0.0
2017-Nov-16 22:58N 53°24' W 003°03'0 0.0
2017-Nov-16 22:25N 53°24' W 003°03'0 0.0
2017-Nov-16 21:58N 53°24' W 003°03'0 0.0
2017-Nov-16 21:28N 53°24' W 003°03'0 0.0
2017-Nov-16 20:58N 53°24' W 003°03'0 0.0
2017-Nov-16 20:28N 53°24' W 003°03'0 0.0
2017-Nov-16 19:55N 53°24' W 003°03'0 0.0
2017-Nov-16 19:28N 53°24' W 003°03'0 0.0
2017-Nov-16 18:58N 53°24' W 003°03'0 0.0
2017-Nov-16 18:28N 53°24' W 003°03'0 0.0
2017-Nov-16 17:58N 53°24' W 003°03'0 0.0
2017-Nov-16 17:28N 53°24' W 003°03'0 0.0
2017-Nov-16 16:58N 53°24' W 003°03'0 0.0
2017-Nov-16 16:28N 53°24' W 003°03'0 0.0
2017-Nov-16 15:58N 53°24' W 003°03'0 0.0
2017-Nov-16 15:25N 53°24' W 003°03'0 0.0
2017-Nov-16 14:55N 53°24' W 003°03'0 0.0
2017-Nov-16 14:28N 53°24' W 003°03'0 0.0
2017-Nov-16 13:55N 53°24' W 003°03'0 0.0
2017-Nov-16 13:28N 53°24' W 003°03'0 0.0
2017-Nov-16 12:58N 53°24' W 003°03'0 0.0
2017-Nov-16 12:28N 53°24' W 003°03'0 0.0
2017-Nov-16 11:58N 53°24' W 003°03'0 0.0
2017-Nov-16 11:25N 53°24' W 003°03'0 0.0
2017-Nov-16 10:55N 53°24' W 003°03'0 0.0
2017-Nov-16 10:25N 53°24' W 003°03'0 0.0
2017-Nov-16 09:58N 53°24' W 003°03'0 0.0
2017-Nov-16 09:28N 53°24' W 003°03'0 0.0
2017-Nov-16 08:55N 53°24' W 003°03'0 0.0
2017-Nov-16 08:19N 53°24' W 003°03'0 0.0
2017-Nov-16 07:55N 53°24' W 003°03'0 0.0
2017-Nov-16 07:28N 53°24' W 003°03'0 0.0
2017-Nov-16 06:58N 53°24' W 003°03'0 0.0
2017-Nov-16 06:28N 53°24' W 003°03'0 0.0
2017-Nov-16 05:58N 53°24' W 003°03'0 0.0
2017-Nov-16 05:25N 53°24' W 003°03'0 0.0
2017-Nov-16 04:58N 53°24' W 003°03'0 0.0
2017-Nov-16 04:28N 53°24' W 003°03'0 0.0
2017-Nov-16 03:55N 53°24' W 003°03'0 0.0
2017-Nov-16 03:28N 53°24' W 003°03'0 0.0
2017-Nov-16 02:58N 53°24' W 003°03'0 0.0
2017-Nov-16 02:28N 53°24' W 003°03'0 0.0
2017-Nov-16 01:58N 53°24' W 003°03'0 0.0
2017-Nov-16 01:28N 53°24' W 003°03'0 0.0
2017-Nov-16 00:58N 53°24' W 003°03'0 0.0
2017-Nov-16 00:25N 53°24' W 003°03'0 0.0
2017-Nov-15 23:58N 53°24' W 003°03'0 0.0
2017-Nov-15 23:25N 53°24' W 003°03'0 0.0
2017-Nov-15 22:58N 53°24' W 003°03'0 0.0
2017-Nov-15 22:29N 53°24' W 003°03'1 1.4
2017-Nov-15 22:00N 53°24' W 003°02'0 0.5
2017-Nov-15 21:30N 53°24' W 003°01'0 0.0
2017-Nov-15 21:00N 53°24' W 003°01'0 0.4
2017-Nov-15 20:30N 53°24' W 003°01'1 1.4
2017-Nov-15 20:00N 53°25' W 003°01'3 6.2
2017-Nov-15 19:30N 53°28' W 003°03'4 8.1
2017-Nov-15 19:00N 53°31' W 003°07'5 9.9
2017-Nov-15 18:30N 53°31' W 003°15'5 9.4
2017-Nov-15 18:00N 53°31' W 003°23'2 3.6
2017-Nov-15 17:27N 53°29' W 003°26'0 0.1
2017-Nov-15 17:00N 53°29' W 003°26'0 0.1
2017-Nov-15 16:30N 53°29' W 003°26'0 0.0
2017-Nov-15 15:54N 53°29' W 003°26'0 0.1
2017-Nov-15 15:30N 53°29' W 003°26'0 0.0
2017-Nov-15 14:54N 53°29' W 003°26'0 0.0
2017-Nov-15 14:30N 53°29' W 003°26'0 0.0
2017-Nov-15 14:00N 53°29' W 003°26'0 0.0
2017-Nov-15 13:30N 53°29' W 003°26'0 0.0
2017-Nov-15 13:00N 53°29' W 003°26'0 0.2
2017-Nov-15 12:30N 53°29' W 003°26'2 4.6
2017-Nov-15 12:00N 53°30' W 003°30'3 6.0
2017-Nov-15 11:30N 53°31' W 003°34'3 5.9
2017-Nov-15 11:01N 53°31' W 003°39'3 6.3
2017-Nov-15 10:30N 53°31' W 003°45'3 6.8
2017-Nov-15 10:00N 53°31' W 003°50'4 6.8
2017-Nov-15 09:29N 53°31' W 003°56'250 8.9
2017-Nov-14 05:25N 49°45' W 006°46'5 8.7
2017-Nov-14 04:51N 49°40' W 006°49'5 8.9
2017-Nov-14 04:15N 49°35' W 006°51'9 8.9
2017-Nov-14 03:14N 49°26' W 006°55'3 9.1
2017-Nov-14 02:56N 49°23' W 006°56'  
Track history (hours):
 
Tides and Currents Weather Stations Pressure Air Temp Water Temp Dewpoint Dewpoint Depression Visibility Wind Speed Wind Dir Waves Ship Positions

Wittenbergen

Last reported at 2017-Nov-18 16:09 UTC. Time now 2017-Nov-19 09:00 UTC.
Position N 54°37' W 005°53'.

Length 88 m; draft 3.6 m.

Type: Cargo ship. MMSI: 304341000.

Date/timePositionNaut miles runAvg speedWind from/ knotsBaromVisibWave heightAir tempDewpointWater temp
2017-Nov-18 16:09N 54°37' W 005°53'0 0.0
2017-Nov-18 13:58N 54°37' W 005°53'1 2.4
2017-Nov-18 13:30N 54°38' W 005°53'5 9.3
2017-Nov-18 13:00N 54°41' W 005°47'5 9.4
2017-Nov-18 12:30N 54°43' W 005°40'5 9.9
2017-Nov-18 12:01N 54°45' W 005°32'510.9
2017-Nov-18 11:30N 54°41' W 005°25'5 9.7
2017-Nov-18 11:00N 54°37' W 005°21'5 9.9
2017-Nov-18 10:30N 54°33' W 005°18'5 9.4
2017-Nov-18 10:00N 54°28' W 005°15'5 9.0
2017-Nov-18 09:30N 54°24' W 005°12'4 8.8
2017-Nov-18 09:00N 54°20' W 005°09'60 8.1
2017-Nov-18 01:36N 53°39' W 003°55'3 9.1
2017-Nov-18 01:18N 53°37' W 003°51'3 9.1
2017-Nov-18 01:00N 53°36' W 003°47'5 9.3
2017-Nov-18 00:30N 53°33' W 003°40'5 9.3
2017-Nov-18 00:00N 53°33' W 003°32'5 9.3
2017-Nov-17 23:30N 53°33' W 003°24'4 8.8
2017-Nov-17 23:00N 53°32' W 003°17'4 8.2
2017-Nov-17 22:30N 53°32' W 003°10'4 8.6
2017-Nov-17 22:00N 53°29' W 003°05'4 8.0
2017-Nov-17 21:30N 53°26' W 003°01'2 3.0
2017-Nov-17 21:00N 53°24' W 003°01'0 0.0
2017-Nov-17 20:30N 53°24' W 003°01'0 0.0
2017-Nov-17 19:58N 53°24' W 003°01'0 0.8
2017-Nov-17 19:28N 53°24' W 003°02'0 0.8
2017-Nov-17 18:55N 53°24' W 003°03'0 0.0
2017-Nov-17 18:28N 53°24' W 003°03'0 0.0
2017-Nov-17 17:58N 53°24' W 003°03'0 0.0
2017-Nov-17 17:28N 53°24' W 003°03'0 0.0
2017-Nov-17 16:55N 53°24' W 003°03'0 0.0
2017-Nov-17 16:28N 53°24' W 003°03'0 0.0
2017-Nov-17 15:58N 53°24' W 003°03'0 0.0
2017-Nov-17 15:25N 53°24' W 003°03'0 0.0
2017-Nov-17 14:55N 53°24' W 003°03'0 0.0
2017-Nov-17 14:28N 53°24' W 003°03'0 0.0
2017-Nov-17 13:58N 53°24' W 003°03'0 0.0
2017-Nov-17 13:28N 53°24' W 003°03'0 0.0
2017-Nov-17 12:58N 53°24' W 003°03'0 0.0
2017-Nov-17 12:28N 53°24' W 003°03'0 0.0
2017-Nov-17 11:49N 53°24' W 003°03'0 0.0
2017-Nov-17 11:28N 53°24' W 003°03'0 0.0
2017-Nov-17 10:58N 53°24' W 003°03'0 0.0
2017-Nov-17 10:28N 53°24' W 003°03'0 0.0
2017-Nov-17 09:58N 53°24' W 003°03'0 0.0
2017-Nov-17 09:25N 53°24' W 003°03'0 0.0
2017-Nov-17 08:55N 53°24' W 003°03'0 0.0
2017-Nov-17 08:25N 53°24' W 003°03'0 0.0
2017-Nov-17 07:58N 53°24' W 003°03'0 0.0
2017-Nov-17 07:22N 53°24' W 003°03'0 0.0
2017-Nov-17 06:58N 53°24' W 003°03'0 0.0
2017-Nov-17 06:22N 53°24' W 003°03'0 0.0
2017-Nov-17 05:58N 53°24' W 003°03'0 0.0
2017-Nov-17 05:28N 53°24' W 003°03'0 0.0
2017-Nov-17 04:55N 53°24' W 003°03'0 0.0
2017-Nov-17 04:25N 53°24' W 003°03'0 0.0
2017-Nov-17 03:55N 53°24' W 003°03'0 0.0
2017-Nov-17 03:22N 53°24' W 003°03'0 0.0
2017-Nov-17 02:58N 53°24' W 003°03'0 0.0
2017-Nov-17 02:25N 53°24' W 003°03'0 0.0
2017-Nov-17 01:58N 53°24' W 003°03'0 0.0
2017-Nov-17 01:25N 53°24' W 003°03'0 0.0
2017-Nov-17 00:58N 53°24' W 003°03'0 0.0
2017-Nov-17 00:28N 53°24' W 003°03'0 0.0
2017-Nov-16 23:55N 53°24' W 003°03'0 0.0
2017-Nov-16 23:28N 53°24' W 003°03'0 0.0
2017-Nov-16 22:58N 53°24' W 003°03'0 0.0
2017-Nov-16 22:25N 53°24' W 003°03'0 0.0
2017-Nov-16 21:58N 53°24' W 003°03'0 0.0
2017-Nov-16 21:28N 53°24' W 003°03'0 0.0
2017-Nov-16 20:58N 53°24' W 003°03'0 0.0
2017-Nov-16 20:28N 53°24' W 003°03'0 0.0
2017-Nov-16 19:55N 53°24' W 003°03'0 0.0
2017-Nov-16 19:28N 53°24' W 003°03'0 0.0
2017-Nov-16 18:58N 53°24' W 003°03'0 0.0
2017-Nov-16 18:28N 53°24' W 003°03'0 0.0
2017-Nov-16 17:58N 53°24' W 003°03'0 0.0
2017-Nov-16 17:28N 53°24' W 003°03'0 0.0
2017-Nov-16 16:58N 53°24' W 003°03'0 0.0
2017-Nov-16 16:28N 53°24' W 003°03'0 0.0
2017-Nov-16 15:58N 53°24' W 003°03'0 0.0
2017-Nov-16 15:25N 53°24' W 003°03'0 0.0
2017-Nov-16 14:55N 53°24' W 003°03'0 0.0
2017-Nov-16 14:28N 53°24' W 003°03'0 0.0
2017-Nov-16 13:55N 53°24' W 003°03'0 0.0
2017-Nov-16 13:28N 53°24' W 003°03'0 0.0
2017-Nov-16 12:58N 53°24' W 003°03'0 0.0
2017-Nov-16 12:28N 53°24' W 003°03'0 0.0
2017-Nov-16 11:58N 53°24' W 003°03'0 0.0
2017-Nov-16 11:25N 53°24' W 003°03'0 0.0
2017-Nov-16 10:55N 53°24' W 003°03'0 0.0
2017-Nov-16 10:25N 53°24' W 003°03'0 0.0
2017-Nov-16 09:58N 53°24' W 003°03'0 0.0
2017-Nov-16 09:28N 53°24' W 003°03'0 0.0
2017-Nov-16 08:55N 53°24' W 003°03'0 0.0
2017-Nov-16 08:19N 53°24' W 003°03'0 0.0
2017-Nov-16 07:55N 53°24' W 003°03'0 0.0
2017-Nov-16 07:28N 53°24' W 003°03'0 0.0
2017-Nov-16 06:58N 53°24' W 003°03'0 0.0
2017-Nov-16 06:28N 53°24' W 003°03'0 0.0
2017-Nov-16 05:58N 53°24' W 003°03'0 0.0
2017-Nov-16 05:25N 53°24' W 003°03'0 0.0
2017-Nov-16 04:58N 53°24' W 003°03'0 0.0
2017-Nov-16 04:28N 53°24' W 003°03'0 0.0
2017-Nov-16 03:55N 53°24' W 003°03'0 0.0
2017-Nov-16 03:28N 53°24' W 003°03'0 0.0
2017-Nov-16 02:58N 53°24' W 003°03'0 0.0
2017-Nov-16 02:28N 53°24' W 003°03'0 0.0
2017-Nov-16 01:58N 53°24' W 003°03'0 0.0
2017-Nov-16 01:28N 53°24' W 003°03'0 0.0
2017-Nov-16 00:58N 53°24' W 003°03'0 0.0
2017-Nov-16 00:25N 53°24' W 003°03'0 0.0
2017-Nov-15 23:58N 53°24' W 003°03'0 0.0
2017-Nov-15 23:25N 53°24' W 003°03'0 0.0
2017-Nov-15 22:58N 53°24' W 003°03'0 0.0
2017-Nov-15 22:29N 53°24' W 003°03'1 1.4
2017-Nov-15 22:00N 53°24' W 003°02'0 0.5
2017-Nov-15 21:30N 53°24' W 003°01'0 0.0
2017-Nov-15 21:00N 53°24' W 003°01'0 0.4
2017-Nov-15 20:30N 53°24' W 003°01'1 1.4
2017-Nov-15 20:00N 53°25' W 003°01'3 6.2
2017-Nov-15 19:30N 53°28' W 003°03'4 8.1
2017-Nov-15 19:00N 53°31' W 003°07'5 9.9
2017-Nov-15 18:30N 53°31' W 003°15'5 9.4
2017-Nov-15 18:00N 53°31' W 003°23'2 3.6
2017-Nov-15 17:27N 53°29' W 003°26'0 0.1
2017-Nov-15 17:00N 53°29' W 003°26'0 0.1
2017-Nov-15 16:30N 53°29' W 003°26'0 0.0
2017-Nov-15 15:54N 53°29' W 003°26'0 0.1
2017-Nov-15 15:30N 53°29' W 003°26'0 0.0
2017-Nov-15 14:54N 53°29' W 003°26'0 0.0
2017-Nov-15 14:30N 53°29' W 003°26'0 0.0
2017-Nov-15 14:00N 53°29' W 003°26'0 0.0
2017-Nov-15 13:30N 53°29' W 003°26'0 0.0
2017-Nov-15 13:00N 53°29' W 003°26'0 0.2
2017-Nov-15 12:30N 53°29' W 003°26'2 4.6
2017-Nov-15 12:00N 53°30' W 003°30'3 6.0
2017-Nov-15 11:30N 53°31' W 003°34'3 5.9
2017-Nov-15 11:01N 53°31' W 003°39'3 6.3
2017-Nov-15 10:30N 53°31' W 003°45'3 6.8
2017-Nov-15 10:00N 53°31' W 003°50'4 6.8
2017-Nov-15 09:29N 53°31' W 003°56'250 8.9
2017-Nov-14 05:25N 49°45' W 006°46'5 8.7
2017-Nov-14 04:51N 49°40' W 006°49'5 8.9
2017-Nov-14 04:15N 49°35' W 006°51'9 8.9
2017-Nov-14 03:14N 49°26' W 006°55'3 9.1
2017-Nov-14 02:56N 49°23' W 006°56'  

Dump ship's entire track history